Norfolk International Airport
KORF : now visible

Airfield :











YOU CAN JOIN US ON...

 
LOGIN :

Register | Disclaimer

   EN    FR    IT 

 









Legend :    VFR   Marginal VFR   IFR   Intensive IFR   Very Intensive IFR
Visi :
Ceiling :
>= 8 km
>= 3000ft
5 to 8 km
1000 to 3000 ft
1500m to 5 km
500 to 1000 ft
800 to 1500m
200 to 500 ft
< 800m
< 200 ft
Symbols :   Thunderstorms  Fog  Heavy snow  Heavy precipitations  Wind > 20 kt







- Airport Elevation : 26 ft
- IATA code : ORF


KORF - Norfolk International

CURRENT METAR :
  • 260651Z 21013KT 10SM -RA CLR 24/19 A3003 RMK AO2 RAB00 SLP170 P0000 T02390194

EXPIRED METARs :
  • 260551Z 20015KT 10SM CLR 24/19 A3004 RMK AO2 SLP171 T02390194 10250 20239 58019
  • 260451Z 19011KT 10SM CLR 24/19 A3006 RMK AO2 SLP180 T02390194 402830194

TAF KORF
Valid from the 26 at 06:00 until the 27 at 06:00 UTC


260559Z 2606/2706 20010G16KT P6SM SCT150
FM261000 22010KT P6SM SCT120
FM261300 25008KT P6SM SCT250
FM261500 29007KT P6SM SCT250
FM261900 04007KT P6SM SCT050
FM270000 19005KT P6SM SCT150
KZDC FIR / North America



MET'MAP, your aeronautical weather chart ! - Copyright ORBIFLY December 2007 - Disclaimer

ORBIFLY MET'MAP TEAM :

Programming & Development : Alexandra Zaïnal
Concept & Development : Baudouin d'Aumeries
Co-Development & Prog : Marc-Olivier Méhu
Technical & hardware support : Manuel Goepfert

Contact : metmap@orbifly.com




SOURCES & CREDITS :

   NOAA       Earth
Advisory